Time;durP1;ratioP1;P1;durP2;ratioP2;P2;SDS_P1;SDS_P2;PMS_P1;PMS_P2;Temp;Humidity;BMP_temperature;BMP_pressure;BME280_temperature;BME280_humidity;BME280_pressure;Samples;Min_cycle;Max_cycle;Signal;HPM_P1;HPM_P2
2023/09/29 00:01:39;;;;;;;6.43;4.00;;;;;;;18.05;79.93;100169.16;6181150;23;20070;-86
2023/09/29 00:04:06;;;;;;;5.38;3.72;;;;;;;18.06;80.02;100172.66;6156791;23;20449;-86
2023/09/29 00:06:33;;;;;;;11.27;4.57;;;;;;;18.04;79.92;100170.16;6181413;23;20132;-85
2023/09/29 00:09:00;;;;;;;7.75;4.85;;;;;;;18.07;79.56;100174.34;6181733;23;20079;-86
2023/09/29 00:11:31;;;;;;;9.45;4.55;;;;;;;18.04;79.81;100170.16;6156531;23;20020;-86
2023/09/29 00:13:58;;;;;;;6.75;4.40;;;;;;;18.07;80.03;100174.34;6205024;23;20024;-86
2023/09/29 00:16:25;;;;;;;10.15;4.60;;;;;;;18.06;79.79;100173.50;6206097;23;20036;-86
2023/09/29 00:18:52;;;;;;;8.75;4.68;;;;;;;18.03;80.14;100176.53;6180962;23;20107;-86
2023/09/29 00:21:20;;;;;;;8.48;4.28;;;;;;;18.01;79.64;100178.56;6156981;23;20025;-85
2023/09/29 00:23:47;;;;;;;8.07;4.65;;;;;;;17.96;79.37;100173.72;6155437;23;20449;-86
2023/09/29 00:26:14;;;;;;;5.88;4.45;;;;;;;17.94;79.63;100173.06;6156213;23;20032;-85
2023/09/29 00:28:41;;;;;;;6.97;4.68;;;;;;;17.92;79.38;100171.56;6180894;23;20043;-86
2023/09/29 00:31:08;;;;;;;6.05;4.30;;;;;;;17.92;79.34;100174.25;6180277;23;20020;-85
2023/09/29 00:33:35;;;;;;;7.35;4.60;;;;;;;17.93;79.34;100167.84;6155160;23;20016;-86
2023/09/29 00:36:02;;;;;;;8.85;4.22;;;;;;;17.95;79.13;100155.91;6180727;23;21568;-86
2023/09/29 00:38:29;;;;;;;8.32;4.38;;;;;;;17.93;79.18;100147.19;6181186;23;20040;-87
2023/09/29 00:40:57;;;;;;;8.15;4.53;;;;;;;17.97;79.15;100153.91;6155948;23;20017;-86
2023/09/29 00:43:24;;;;;;;7.13;4.15;;;;;;;17.94;79.45;100161.50;6156403;23;22040;-86
2023/09/29 00:45:51;;;;;;;7.22;4.65;;;;;;;17.94;79.11;100161.50;6205220;23;20032;-86
2023/09/29 00:48:19;;;;;;;4.95;3.92;;;;;;;17.94;79.00;100161.50;6180908;23;20075;-86
2023/09/29 00:50:47;;;;;;;9.23;4.22;;;;;;;17.93;79.12;100166.00;6180885;23;20024;-87
2023/09/29 00:53:16;;;;;;;11.32;4.85;;;;;;;17.89;78.93;100162.00;6205397;23;20070;-86
2023/09/29 00:55:45;;;;;;;7.65;4.57;;;;;;;17.88;79.02;100160.31;6205321;23;20047;-86
2023/09/29 00:58:14;;;;;;;9.90;4.43;;;;;;;17.86;78.85;100165.06;6157050;23;20467;-87
2023/09/29 01:00:41;;;;;;;7.22;4.13;;;;;;;17.86;78.91;100157.00;6179944;23;20070;-87
2023/09/29 01:03:13;;;;;;;6.68;4.47;;;;;;;17.83;78.15;100160.00;6180894;23;20032;-87
2023/09/29 01:05:46;;;;;;;7.30;4.55;;;;;;;17.84;77.83;100164.38;6155759;23;20472;-86
2023/09/29 01:08:19;;;;;;;5.65;3.67;;;;;;;17.77;77.79;100158.00;6206467;23;20008;-86
2023/09/29 01:10:46;;;;;;;;;;;;;;;17.54;78.11;100156.06;6205830;23;20450;-86
2023/09/29 01:13:12;;;;;;;7.07;4.30;;;;;;;17.75;78.12;100154.63;6180524;23;19918;-86
2023/09/29 01:15:39;;;;;;;5.32;3.75;;;;;;;17.74;77.67;100144.91;6180771;23;20388;-86
2023/09/29 01:18:08;;;;;;;6.47;4.47;;;;;;;17.74;78.02;100150.28;6204974;23;20082;-85
2023/09/29 01:20:37;;;;;;;6.05;4.20;;;;;;;17.74;77.84;100152.97;6204512;23;20020;-85
2023/09/29 01:23:05;;;;;;;7.20;3.90;;;;;;;17.72;77.85;100155.00;6205816;23;20021;-86
2023/09/29 01:25:32;;;;;;;5.70;3.97;;;;;;;17.73;77.73;100152.16;6181546;23;20107;-86
2023/09/29 01:28:01;;;;;;;8.13;4.70;;;;;;;17.70;77.64;100148.97;6155563;23;20032;-86
2023/09/29 01:30:28;;;;;;;5.63;3.83;;;;;;;17.68;77.69;100151.84;6180802;23;20079;-85
2023/09/29 01:32:59;;;;;;;8.27;3.70;;;;;;;17.69;77.56;100158.03;6155512;23;20071;-86
2023/09/29 01:35:27;;;;;;;4.43;3.85;;;;;;;17.66;77.47;100153.03;6180091;23;20028;-85
2023/09/29 01:37:55;;;;;;;7.63;4.70;;;;;;;17.65;77.56;100154.00;6155568;23;20024;-85
2023/09/29 01:40:23;;;;;;;6.82;4.13;;;;;;;17.65;77.83;100144.09;6205770;23;20028;-86
2023/09/29 01:42:51;;;;;;;6.15;4.18;;;;;;;17.61;77.57;100147.34;6154999;23;20031;-85
2023/09/29 01:45:18;;;;;;;6.28;4.15;;;;;;;17.57;77.64;100149.50;6179217;23;20071;-85
2023/09/29 01:47:47;;;;;;;9.15;4.18;;;;;;;17.58;77.41;100145.84;6155844;23;20382;-85
2023/09/29 01:50:17;;;;;;;6.47;4.13;;;;;;;17.58;77.39;100146.66;6204852;23;20075;-85
2023/09/29 01:52:46;;;;;;;5.63;3.75;;;;;;;17.60;77.46;100140.28;6179476;23;20021;-85
2023/09/29 01:55:20;;;;;;;7.13;4.63;;;;;;;17.61;77.58;100141.97;6204979;23;20027;-86
2023/09/29 01:57:48;;;;;;;6.70;3.90;;;;;;;17.58;77.82;100148.53;6155913;23;20020;-85
2023/09/29 02:00:19;;;;;;;5.43;4.40;;;;;;;17.56;77.59;100143.31;6180857;23;20028;-86
2023/09/29 02:02:47;;;;;;;4.55;4.10;;;;;;;17.57;78.10;100144.97;6154458;23;20459;-85
2023/09/29 02:05:16;;;;;;;10.30;4.10;;;;;;;17.56;78.27;100131.75;6178871;23;20086;-85
2023/09/29 02:07:44;;;;;;;7.22;4.28;;;;;;;17.56;78.04;100137.09;6179893;23;20568;-85
2023/09/29 02:10:11;;;;;;;6.75;4.60;;;;;;;17.52;78.12;100136.59;6179599;23;20093;-86
2023/09/29 02:12:58;;;;;;;7.07;3.95;;;;;;;17.41;78.13;100142.34;6180390;23;20585;-86
2023/09/29 02:15:29;;;;;;;6.80;4.00;;;;;;;17.54;78.10;100147.19;6181306;23;20092;-86
2023/09/29 02:17:57;;;;;;;6.30;4.00;;;;;;;17.48;78.07;100134.47;6157377;23;20030;-86
2023/09/29 02:20:31;;;;;;;8.10;3.92;;;;;;;17.48;77.86;100140.66;6206690;23;20020;-86
2023/09/29 02:22:59;;;;;;;7.55;4.38;;;;;;;17.45;78.25;100145.53;6182899;23;20020;-86
2023/09/29 02:25:27;;;;;;;7.13;4.13;;;;;;;17.46;77.97;100139.16;6157305;23;20023;-86
2023/09/29 02:27:55;;;;;;;5.93;3.72;;;;;;;17.46;77.97;100152.59;6181282;23;20028;-86
2023/09/29 02:30:24;;;;;;;8.23;4.30;;;;;;;17.46;77.79;100149.91;6207093;23;20449;-86
2023/09/29 02:32:55;;;;;;;8.50;4.13;;;;;;;17.46;77.29;100149.91;6207531;23;20032;-85
2023/09/29 02:35:23;;;;;;;8.05;4.00;;;;;;;17.42;77.44;100157.44;6156323;23;20016;-85
2023/09/29 02:37:52;;;;;;;17.48;4.50;;;;;;;17.42;77.33;100151.25;6181770;23;20025;-86
2023/09/29 02:40:23;;;;;;;5.20;3.97;;;;;;;17.41;77.46;100146.91;6158282;23;20048;-86
2023/09/29 02:42:50;;;;;;;6.68;4.20;;;;;;;17.38;77.64;100156.13;6182015;23;20086;-86
2023/09/29 02:45:18;;;;;;;6.78;4.03;;;;;;;17.36;77.55;100153.59;6155941;23;20029;-86
2023/09/29 02:47:47;;;;;;;6.65;4.18;;;;;;;17.33;77.15;100153.94;6156982;23;20023;-86
2023/09/29 02:50:14;;;;;;;6.32;4.18;;;;;;;17.36;77.20;100150.91;6133431;23;20449;-86
2023/09/29 02:52:42;;;;;;;8.48;4.43;;;;;;;17.32;77.38;100159.47;6206597;23;20444;-86
2023/09/29 02:55:12;;;;;;;7.30;4.30;;;;;;;17.29;77.56;100154.47;6206890;23;20032;-85
2023/09/29 02:57:41;;;;;;;7.55;4.55;;;;;;;17.27;77.38;100149.25;6158573;23;20020;-86
2023/09/29 03:00:18;;;;;;;5.90;3.88;;;;;;;17.23;77.27;100153.31;6205092;23;20078;-85
2023/09/29 03:02:45;;;;;;;5.68;3.95;;;;;;;17.28;77.33;100158.16;6206074;23;20042;-86
2023/09/29 03:05:14;;;;;;;8.63;4.10;;;;;;;17.24;77.23;100154.13;6182744;23;20025;-85
2023/09/29 03:07:42;;;;;;;5.80;3.75;;;;;;;17.25;77.00;100145.94;6181430;23;20096;-86
2023/09/29 03:10:12;;;;;;;6.93;4.18;;;;;;;17.18;76.75;100152.16;6156212;23;20035;-85
2023/09/29 03:12:39;;;;;;;7.72;3.90;;;;;;;17.20;76.75;100147.44;6156056;23;20023;-86
2023/09/29 03:15:15;;;;;;;5.95;3.80;;;;;;;17.18;76.99;100144.09;6181157;23;20027;-85
2023/09/29 03:17:44;;;;;;;5.68;3.50;;;;;;;17.17;76.77;100145.91;6157981;23;20016;-85
2023/09/29 03:20:14;;;;;;;5.38;3.72;;;;;;;17.17;76.70;100148.59;6153702;23;20380;-85
2023/09/29 03:22:43;;;;;;;9.20;4.38;;;;;;;17.10;77.00;100144.94;6155359;23;20013;-87
2023/09/29 03:25:10;;;;;;;7.50;4.35;;;;;;;17.11;76.92;100144.75;6156252;23;20028;-85
2023/09/29 03:27:38;;;;;;;5.70;3.90;;;;;;;17.11;76.97;100144.75;6203323;23;20396;-85
2023/09/29 03:30:08;;;;;;;8.70;4.70;;;;;;;17.10;77.04;100140.41;6180724;23;20028;-86
2023/09/29 03:32:35;;;;;;;4.05;3.53;;;;;;;17.10;77.79;100153.84;6180392;23;20020;-86
2023/09/29 03:35:05;;;;;;;7.10;3.95;;;;;;;17.08;78.12;100149.66;6180909;23;20032;-86
2023/09/29 03:37:36;;;;;;;6.45;3.97;;;;;;;17.11;78.10;100163.53;6155189;23;20444;-85
2023/09/29 03:40:08;;;;;;;4.40;3.65;;;;;;;17.09;78.17;100162.88;6156999;23;20025;-85
2023/09/29 03:42:36;;;;;;;6.90;4.47;;;;;;;17.04;78.10;100169.75;6181897;23;20083;-85
2023/09/29 03:45:05;;;;;;;5.70;4.30;;;;;;;17.06;78.22;100165.06;6180643;23;20040;-85
2023/09/29 03:47:35;;;;;;;6.53;4.85;;;;;;;17.03;78.66;100174.31;6181160;23;20024;-86
2023/09/29 03:50:07;;;;;;;6.20;3.95;;;;;;;17.01;78.31;100162.06;6202076;23;20035;-86
2023/09/29 03:52:34;;;;;;;5.75;3.75;;;;;;;16.99;77.96;100162.22;6155778;23;20084;-85
2023/09/29 03:55:00;;;;;;;5.22;3.75;;;;;;;17.06;78.09;100163.22;6180947;23;20012;-86
2023/09/29 03:57:27;;;;;;;6.30;3.42;;;;;;;17.03;78.19;100152.84;6206123;23;20329;-86
2023/09/29 03:59:54;;;;;;;6.88;3.65;;;;;;;17.07;78.22;100162.22;6165345;23;20041;-86
2023/09/29 04:02:21;;;;;;;7.65;3.97;;;;;;;17.04;78.17;100167.06;6179417;23;20028;-89
2023/09/29 04:04:48;;;;;;;5.32;3.72;;;;;;;17.03;77.72;100162.72;6153768;23;20024;-90
2023/09/29 04:07:17;;;;;;;7.22;3.67;;;;;;;17.03;78.28;100163.56;6180182;23;20056;-91
2023/09/29 04:09:44;;;;;;;6.30;3.97;;;;;;;17.02;78.05;100161.91;6154136;23;20028;-88
2023/09/29 04:12:12;;;;;;;12.32;3.72;;;;;;;17.03;78.27;100158.19;6177314;23;20044;-87
2023/09/29 04:14:41;;;;;;;5.20;3.55;;;;;;;17.04;78.03;100159.88;6154639;23;20051;-88
2023/09/29 04:17:08;;;;;;;6.30;4.15;;;;;;;17.05;78.04;100166.91;6179646;23;20067;-88
2023/09/29 04:19:35;;;;;;;5.70;3.83;;;;;;;17.02;77.80;100169.09;6154565;23;20020;-88
2023/09/29 04:22:02;;;;;;;8.75;4.30;;;;;;;17.04;77.88;100165.22;6204595;23;20022;-84
2023/09/29 04:24:29;;;;;;;6.70;3.45;;;;;;;17.05;77.80;100168.78;6205549;23;20095;-84
2023/09/29 04:26:56;;;;;;;7.55;3.95;;;;;;;17.03;77.95;100173.47;6205827;23;20070;-84
2023/09/29 04:29:23;;;;;;;5.20;3.65;;;;;;;17.02;77.82;100174.44;6180714;23;20060;-84
2023/09/29 04:31:50;;;;;;;8.75;4.13;;;;;;;17.00;77.94;100171.13;6130106;23;20025;-84
2023/09/29 04:34:17;;;;;;;4.82;3.65;;;;;;;16.99;78.38;100172.13;6205306;23;20021;-86
2023/09/29 04:36:44;;;;;;;4.97;3.92;;;;;;;17.02;78.43;100171.78;6178255;23;20023;-88
2023/09/29 04:39:11;;;;;;;7.10;3.88;;;;;;;17.02;78.27;100169.09;6153679;23;20028;-89
2023/09/29 04:41:39;;;;;;;7.40;3.60;;;;;;;17.01;78.67;100164.75;6155293;23;20012;-85
2023/09/29 04:44:06;;;;;;;4.50;3.70;;;;;;;17.00;79.00;100152.34;6203096;23;20028;-85
2023/09/29 04:46:36;;;;;;;4.75;3.63;;;;;;;17.00;79.06;100161.22;6180175;23;20024;-82
2023/09/29 04:49:03;;;;;;;7.78;3.70;;;;;;;17.01;79.16;100154.00;6201234;23;20094;-85
2023/09/29 04:51:34;;;;;;;8.60;3.85;;;;;;;16.96;79.52;100162.56;6152063;23;20020;-84
2023/09/29 04:54:00;;;;;;;7.38;4.05;;;;;;;16.99;79.29;100161.38;6153481;23;20012;-84
2023/09/29 04:56:27;;;;;;;6.70;4.32;;;;;;;17.00;79.39;100168.44;6153966;23;20031;-84
2023/09/29 04:58:54;;;;;;;7.35;4.35;;;;;;;17.02;79.53;100178.00;6205580;23;20111;-84
2023/09/29 05:01:23;;;;;;;5.93;4.32;;;;;;;17.03;79.02;100181.50;6200505;23;20024;-84
2023/09/29 05:03:51;;;;;;;6.25;4.07;;;;;;;17.01;79.33;100181.66;6152689;23;20027;-84
2023/09/29 05:06:18;;;;;;;5.72;3.80;;;;;;;17.03;79.08;100182.34;6153685;23;20028;-84
2023/09/29 05:08:45;;;;;;;7.38;4.57;;;;;;;17.04;79.16;100189.38;6176253;23;20122;-84
2023/09/29 05:11:22;;;;;;;6.30;3.63;;;;;;;16.99;79.56;100196.25;6153093;23;20036;-84
2023/09/29 05:13:49;;;;;;;8.35;4.10;;;;;;;17.04;79.34;100196.59;6176305;23;20441;-84
2023/09/29 05:16:16;;;;;;;10.18;4.53;;;;;;;17.03;79.25;100197.63;6153556;23;20099;-84
2023/09/29 05:18:44;;;;;;;5.32;4.10;;;;;;;17.01;79.51;100189.72;6177394;23;20028;-84
2023/09/29 05:21:11;;;;;;;7.55;4.05;;;;;;;17.01;79.77;100197.75;6153759;23;20086;-84
2023/09/29 05:23:38;;;;;;;9.20;4.30;;;;;;;17.00;79.83;100195.28;6177049;23;20027;-84
2023/09/29 05:26:05;;;;;;;6.88;4.40;;;;;;;17.03;79.85;100193.06;6177499;23;20017;-84
2023/09/29 05:28:32;;;;;;;7.03;3.85;;;;;;;17.00;79.99;100188.06;6175488;23;20016;-84
2023/09/29 05:30:59;;;;;;;7.22;4.68;;;;;;;17.01;80.32;100194.25;6202995;23;20403;-84
2023/09/29 05:33:26;;;;;;;10.85;4.50;;;;;;;17.00;80.48;100198.78;6153896;23;20392;-84
2023/09/29 05:35:55;;;;;;;9.07;4.28;;;;;;;17.00;80.72;100195.28;6152966;23;20067;-84
2023/09/29 05:38:22;;;;;;;6.07;3.90;;;;;;;16.99;80.93;100198.94;6128575;23;20087;-84
2023/09/29 05:40:52;;;;;;;5.03;3.88;;;;;;;17.00;81.11;100203.31;6152832;23;21116;-84
2023/09/29 05:43:18;;;;;;;9.00;4.47;;;;;;;17.03;81.22;100201.13;6152960;23;20025;-84
2023/09/29 05:45:46;;;;;;;7.97;4.55;;;;;;;17.02;81.29;100204.84;6201266;23;20091;-84
2023/09/29 05:48:16;;;;;;;7.22;4.57;;;;;;;17.05;81.12;100207.16;6176949;23;20071;-84
2023/09/29 05:50:44;;;;;;;7.95;4.40;;;;;;;17.06;80.97;100197.25;6202571;23;20023;-84
2023/09/29 05:53:12;;;;;;;12.82;5.18;;;;;;;17.08;80.77;100192.56;6180758;23;20086;-84
2023/09/29 05:55:38;;;;;;;7.47;5.05;;;;;;;17.10;80.66;100191.41;6154121;23;20035;-83
2023/09/29 05:58:05;;;;;;;9.02;4.82;;;;;;;17.10;80.87;100196.75;6154335;23;20017;-84
2023/09/29 06:00:33;;;;;;;8.27;4.68;;;;;;;17.11;81.15;100197.59;6154815;23;20020;-84
2023/09/29 06:03:00;;;;;;;7.15;4.75;;;;;;;17.13;80.57;100184.84;6155093;23;20400;-84
2023/09/29 06:05:28;;;;;;;8.23;4.55;;;;;;;17.13;80.79;100191.06;6203496;23;20079;-84
2023/09/29 06:07:56;;;;;;;11.95;5.38;;;;;;;17.14;80.69;100198.09;6178430;23;20016;-84
2023/09/29 06:10:25;;;;;;;8.85;5.78;;;;;;;17.16;80.39;100202.47;6204606;23;20078;-84
2023/09/29 06:12:53;;;;;;;8.40;5.38;;;;;;;17.14;80.63;100198.09;6155391;23;20024;-84
2023/09/29 06:15:19;;;;;;;9.73;5.88;;;;;;;17.14;80.94;100203.44;6178642;23;20028;-84
2023/09/29 06:17:46;;;;;;;9.77;7.10;;;;;;;17.16;80.94;100197.09;6178878;23;20071;-84
2023/09/29 06:20:13;;;;;;;10.50;6.15;;;;;;;17.18;80.85;100206.66;6155123;23;20024;-84
2023/09/29 06:22:40;;;;;;;8.93;5.38;;;;;;;17.17;80.93;100210.31;6154261;23;20052;-84
2023/09/29 06:25:07;;;;;;;7.80;4.72;;;;;;;17.14;81.03;100221.41;6154570;23;20051;-84
2023/09/29 06:27:34;;;;;;;7.30;4.80;;;;;;;17.18;81.02;100214.69;6178837;23;20025;-84
2023/09/29 06:30:01;;;;;;;8.85;4.60;;;;;;;17.16;81.29;100211.34;6180040;23;20025;-84
2023/09/29 06:32:28;;;;;;;7.55;4.20;;;;;;;17.17;81.32;100218.38;6154660;23;20096;-84
2023/09/29 06:34:55;;;;;;;8.10;5.00;;;;;;;17.19;81.01;100218.22;6130093;23;20033;-84
2023/09/29 06:37:21;;;;;;;5.70;4.15;;;;;;;17.20;81.36;100225.25;6203641;23;20017;-84
2023/09/29 06:39:48;;;;;;;12.43;4.65;;;;;;;17.21;81.41;100224.25;6154365;23;20024;-84
2023/09/29 06:42:15;;;;;;;6.75;4.13;;;;;;;17.21;81.30;100235.00;6154610;23;20837;-84
2023/09/29 06:44:42;;;;;;;6.90;4.45;;;;;;;17.21;81.06;100229.63;6178248;23;20365;-84
2023/09/29 06:47:09;;;;;;;5.43;4.70;;;;;;;17.24;81.42;100221.22;6179666;23;20048;-84
2023/09/29 06:49:36;;;;;;;6.43;4.90;;;;;;;17.21;81.37;100218.91;6154575;23;20070;-84
2023/09/29 06:52:03;;;;;;;8.85;4.53;;;;;;;17.25;81.69;100214.84;6153385;23;20071;-84
2023/09/29 06:54:30;;;;;;;7.10;4.88;;;;;;;17.29;81.50;100221.56;6154717;23;20091;-84
2023/09/29 06:56:57;;;;;;;6.45;4.57;;;;;;;17.31;81.47;100220.38;6153908;23;20016;-84
2023/09/29 06:59:24;;;;;;;7.47;4.70;;;;;;;17.32;81.68;100218.53;6154136;23;20020;-84
2023/09/29 07:01:50;;;;;;;6.85;4.60;;;;;;;17.35;81.59;100216.38;6179783;23;20012;-85
2023/09/29 07:04:18;;;;;;;5.57;4.00;;;;;;;17.38;81.32;100219.69;6178193;23;20096;-84
2023/09/29 07:06:45;;;;;;;7.38;4.20;;;;;;;17.39;81.08;100216.03;6153653;23;20097;-84
2023/09/29 07:09:13;;;;;;;7.28;4.63;;;;;;;17.38;81.15;100223.25;6203774;23;20033;-85
2023/09/29 07:11:41;;;;;;;5.43;4.65;;;;;;;17.40;81.48;100218.50;6153919;23;20777;-84
2023/09/29 07:14:08;;;;;;;7.82;4.88;;;;;;;17.40;82.20;100213.16;6154169;23;20029;-84
2023/09/29 07:16:35;;;;;;;11.25;4.75;;;;;;;17.42;82.44;100213.81;6177512;23;20024;-84
2023/09/29 07:19:03;;;;;;;7.43;4.50;;;;;;;17.41;82.35;100208.63;6155422;23;20718;-84
2023/09/29 07:21:30;;;;;;;5.93;4.25;;;;;;;17.38;82.56;100212.50;6178040;23;20388;-84
2023/09/29 07:23:57;;;;;;;6.50;4.30;;;;;;;17.45;82.59;100212.63;6178231;23;20514;-84
2023/09/29 07:26:24;;;;;;;10.90;4.65;;;;;;;17.41;82.97;100211.31;6153937;23;20417;-84
2023/09/29 07:28:51;;;;;;;6.13;3.83;;;;;;;17.42;83.15;100226.41;6153303;23;20047;-85
2023/09/29 07:31:18;;;;;;;6.55;4.57;;;;;;;17.40;83.54;100225.72;6204611;23;20029;-84
2023/09/29 07:33:45;;;;;;;8.45;4.32;;;;;;;17.41;83.42;100222.88;6177989;23;20495;-84
2023/09/29 07:36:12;;;;;;;7.20;5.07;;;;;;;17.44;83.69;100227.09;6178522;23;20461;-84
2023/09/29 07:38:39;;;;;;;6.18;4.82;;;;;;;17.42;83.75;100229.91;6178295;23;20013;-84
2023/09/29 07:41:06;;;;;;;6.95;4.38;;;;;;;17.46;83.45;100238.50;6204394;23;20028;-84
2023/09/29 07:43:33;;;;;;;6.43;4.20;;;;;;;17.47;83.75;100232.09;6153570;23;20025;-84
2023/09/29 07:45:59;;;;;;;6.82;4.88;;;;;;;17.51;83.70;100239.66;6178442;23;20483;-85
2023/09/29 07:48:27;;;;;;;5.53;4.47;;;;;;;17.52;83.64;100233.25;6153842;23;20025;-84
2023/09/29 07:50:54;;;;;;;6.97;5.35;;;;;;;17.56;83.90;100233.78;6154804;23;20024;-85
2023/09/29 07:53:21;;;;;;;7.90;5.13;;;;;;;17.62;83.66;100235.75;6178513;23;20025;-84
2023/09/29 07:55:48;;;;;;;11.15;4.97;;;;;;;17.65;83.62;100238.09;6179712;23;20585;-84
2023/09/29 07:58:15;;;;;;;5.63;4.47;;;;;;;17.70;83.64;100232.22;6153562;23;20017;-84
2023/09/29 08:00:42;;;;;;;11.75;5.10;;;;;;;17.71;83.55;100236.59;6152782;23;20017;-84
2023/09/29 08:03:09;;;;;;;6.63;4.78;;;;;;;17.75;83.69;100233.38;6178353;23;20396;-84
2023/09/29 08:05:36;;;;;;;8.93;5.97;;;;;;;17.77;83.47;100234.03;6202067;23;20056;-84
2023/09/29 08:08:03;;;;;;;6.43;4.60;;;;;;;17.79;83.44;100229.38;6202882;23;20024;-85
2023/09/29 08:10:30;;;;;;;6.72;4.57;;;;;;;17.82;83.19;100227.34;6152997;23;20045;-84
2023/09/29 08:12:56;;;;;;;7.10;5.05;;;;;;;17.84;82.78;100228.84;6152388;23;20017;-84
2023/09/29 08:15:24;;;;;;;6.90;4.90;;;;;;;17.90;82.78;100221.94;6178346;23;20052;-84
2023/09/29 08:17:51;;;;;;;8.68;4.68;;;;;;;17.92;82.92;100230.69;6153830;23;20352;-85
2023/09/29 08:20:19;;;;;;;7.88;5.00;;;;;;;17.95;83.04;100235.69;6178383;23;20020;-85
2023/09/29 08:22:45;;;;;;;9.48;4.20;;;;;;;17.99;83.24;100234.34;6178380;23;20020;-84
2023/09/29 08:25:16;;;;;;;7.70;4.53;;;;;;;18.01;83.19;100226.91;6178889;23;20759;-85
2023/09/29 08:27:43;;;;;;;12.20;4.63;;;;;;;18.05;83.27;100230.94;6153149;23;20337;-84
2023/09/29 08:30:10;;;;;;;11.00;5.35;;;;;;;18.06;83.11;100229.09;6154032;23;20039;-84
2023/09/29 08:32:38;;;;;;;8.45;5.40;;;;;;;18.10;82.93;100233.13;6153525;23;20172;-84
2023/09/29 08:35:06;;;;;;;6.50;4.53;;;;;;;18.11;82.21;100230.25;6179234;23;20031;-84
2023/09/29 08:37:33;;;;;;;7.75;4.35;;;;;;;18.15;81.77;100225.38;6152286;23;20024;-84
2023/09/29 08:40:00;;;;;;;7.30;4.32;;;;;;;18.18;81.28;100215.09;6178824;23;20020;-84
2023/09/29 08:42:38;;;;;;;7.15;4.90;;;;;;;18.17;81.30;100213.44;6178990;23;20449;-84
2023/09/29 08:45:10;;;;;;;9.30;4.85;;;;;;;18.25;81.40;100203.66;6176996;23;20048;-84
2023/09/29 08:47:40;;;;;;;10.20;4.88;;;;;;;18.30;81.16;100196.72;6203951;23;20547;-85
2023/09/29 08:50:11;;;;;;;7.80;4.50;;;;;;;18.34;81.18;100198.06;6203481;23;20027;-85
2023/09/29 08:52:41;;;;;;;6.70;4.45;;;;;;;18.37;81.05;100203.06;6178489;23;20030;-85
2023/09/29 08:55:08;;;;;;;6.88;5.20;;;;;;;18.42;80.64;100202.53;6178330;23;20016;-85
2023/09/29 08:57:34;;;;;;;6.97;5.10;;;;;;;18.42;80.57;100200.69;6153742;23;20028;-85
2023/09/29 09:00:03;;;;;;;8.63;4.60;;;;;;;18.46;80.25;100203.00;6153389;23;20415;-84
2023/09/29 09:02:30;;;;;;;7.07;4.65;;;;;;;18.43;80.47;100202.34;6176971;23;20024;-85
2023/09/29 09:04:57;;;;;;;11.90;5.30;;;;;;;18.44;80.63;100201.34;6201678;23;20027;-84
2023/09/29 09:07:23;;;;;;;9.93;4.43;;;;;;;18.43;80.80;100196.97;6178177;23;20025;-85
2023/09/29 09:09:53;;;;;;;7.78;4.35;;;;;;;18.47;80.82;100199.31;6154120;23;20453;-85
2023/09/29 09:12:32;;;;;;;7.50;4.53;;;;;;;18.42;80.77;100199.84;6202050;23;20044;-84
2023/09/29 09:15:00;;;;;;;7.55;4.40;;;;;;;18.47;80.21;100202.00;6202873;23;20020;-85
2023/09/29 09:17:27;;;;;;;10.98;4.82;;;;;;;18.50;80.45;100196.28;6153049;23;20013;-84
2023/09/29 09:19:54;;;;;;;10.65;4.90;;;;;;;18.54;80.57;100200.25;6153476;23;20030;-85
2023/09/29 09:22:24;;;;;;;10.23;4.72;;;;;;;18.56;80.06;100207.13;6177935;23;20036;-84
2023/09/29 09:25:12;;;;;;;8.77;4.22;;;;;;;18.57;79.74;100208.84;6203054;23;20429;-84
2023/09/29 09:27:39;;;;;;;6.45;4.18;;;;;;;18.62;79.57;100213.66;6154687;23;20448;-85
2023/09/29 09:30:23;;;;;;;5.35;4.25;;;;;;;18.61;79.46;100214.69;6204463;23;20021;-84
2023/09/29 09:32:50;;;;;;;7.07;4.40;;;;;;;18.63;79.50;100207.28;6205002;23;20353;-84
2023/09/29 09:35:28;;;;;;;6.35;4.05;;;;;;;18.60;79.25;100215.72;6154884;23;20318;-84
2023/09/29 09:37:56;;;;;;;7.85;3.85;;;;;;;18.64;79.35;100206.25;6154774;23;20020;-85
2023/09/29 09:40:27;;;;;;;6.65;3.92;;;;;;;18.67;79.48;100216.63;6205375;23;20460;-85
2023/09/29 09:42:54;;;;;;;6.85;4.07;;;;;;;18.70;79.37;100218.13;6156147;23;20013;-85
2023/09/29 09:45:25;;;;;;;10.43;4.45;;;;;;;18.75;79.60;100213.06;6180023;23;20484;-84
2023/09/29 09:47:57;;;;;;;4.72;4.20;;;;;;;18.69;78.54;100217.31;6155960;23;20021;-84
2023/09/29 09:50:27;;;;;;;8.15;3.90;;;;;;;18.80;79.07;100213.38;6204738;23;20017;-84
2023/09/29 09:52:54;;;;;;;7.05;3.40;;;;;;;18.85;79.48;100214.53;6156205;23;20016;-84
2023/09/29 09:55:28;;;;;;;6.97;3.55;;;;;;;18.87;79.36;100215.16;6229483;23;20027;-85
2023/09/29 09:57:56;;;;;;;7.43;3.83;;;;;;;18.92;79.70;100214.63;6155095;23;20099;-84
2023/09/29 10:00:24;;;;;;;6.15;3.88;;;;;;;18.97;79.63;100216.78;6205218;23;20480;-84
2023/09/29 10:02:52;;;;;;;9.45;4.70;;;;;;;19.02;79.96;100214.41;6154711;23;20025;-84
2023/09/29 10:05:23;;;;;;;4.65;3.35;;;;;;;19.07;79.81;100217.38;6203056;23;20024;-84
2023/09/29 10:08:01;;;;;;;11.95;4.72;;;;;;;19.08;79.51;100206.44;6180419;23;20020;-84
2023/09/29 10:10:31;;;;;;;5.68;4.10;;;;;;;19.15;79.65;100201.16;6181348;23;20029;-85
2023/09/29 10:12:59;;;;;;;7.65;3.72;;;;;;;19.19;79.60;100202.47;6204577;23;20024;-85
2023/09/29 10:15:29;;;;;;;8.55;4.10;;;;;;;19.24;79.53;100202.75;6180376;23;20047;-84
2023/09/29 10:17:58;;;;;;;7.97;4.05;;;;;;;19.28;79.89;100198.69;6205002;23;20017;-85
2023/09/29 10:20:29;;;;;;;7.57;4.05;;;;;;;19.31;79.83;100197.47;6205349;23;20087;-84
2023/09/29 10:23:06;;;;;;;4.80;3.83;;;;;;;19.30;79.36;100196.63;6178959;23;20024;-85
2023/09/29 10:25:35;;;;;;;6.50;3.60;;;;;;;19.36;79.32;100195.06;6155208;23;20020;-85
2023/09/29 10:28:07;;;;;;;6.00;4.15;;;;;;;19.40;79.42;100198.22;6204385;23;20020;-84
2023/09/29 10:30:35;;;;;;;6.40;4.43;;;;;;;19.44;80.14;100189.59;6204835;23;20322;-84
2023/09/29 10:33:11;;;;;;;9.88;3.90;;;;;;;19.46;79.17;100186.69;6204036;23;20025;-85
2023/09/29 10:35:48;;;;;;;6.40;4.05;;;;;;;19.52;78.99;100191.38;6178647;23;20024;-84
2023/09/29 10:38:29;;;;;;;5.07;3.55;;;;;;;19.58;78.95;100185.22;6203878;23;20043;-85
2023/09/29 10:40:58;;;;;;;5.13;4.03;;;;;;;19.69;79.34;100184.81;6206397;23;20024;-84
2023/09/29 10:43:24;;;;;;;7.82;4.32;;;;;;;19.72;79.13;100181.72;6202788;23;20099;-84
2023/09/29 10:45:51;;;;;;;8.43;4.50;;;;;;;19.72;78.98;100170.94;6178847;23;20020;-84
2023/09/29 10:48:27;;;;;;;5.53;3.50;;;;;;;19.76;79.41;100173.25;6179344;23;20021;-84
2023/09/29 10:50:55;;;;;;;8.80;4.60;;;;;;;19.79;79.82;100159.41;6204160;23;20029;-84
2023/09/29 10:53:22;;;;;;;7.88;4.30;;;;;;;19.82;80.22;100165.28;6153954;23;20336;-84
2023/09/29 10:55:51;;;;;;;9.10;4.03;;;;;;;19.85;80.05;100164.06;6154746;23;20020;-85
2023/09/29 10:58:19;;;;;;;4.18;3.60;;;;;;;19.87;80.17;100162.00;6203929;23;20016;-84
2023/09/29 11:00:50;;;;;;;6.63;4.00;;;;;;;19.91;80.05;100163.31;6155525;23;20023;-84
2023/09/29 11:03:28;;;;;;;5.72;3.85;;;;;;;19.93;80.02;100159.41;6204904;23;20037;-85
2023/09/29 11:05:58;;;;;;;6.35;4.13;;;;;;;20.06;80.48;100152.50;6205175;23;20023;-85
2023/09/29 11:08:29;;;;;;;11.00;4.45;;;;;;;20.09;80.07;100144.84;6202850;23;20028;-85
2023/09/29 11:11:06;;;;;;;7.13;4.38;;;;;;;20.12;79.78;100141.81;6154935;23;20455;-85
2023/09/29 11:13:33;;;;;;;9.77;3.90;;;;;;;20.21;80.33;100133.59;6202576;23;20816;-85
2023/09/29 11:16:00;;;;;;;7.53;3.97;;;;;;;20.25;80.11;100137.56;6204800;23;20016;-85
2023/09/29 11:18:28;;;;;;;5.07;3.40;;;;;;;20.29;80.16;100138.84;6203811;23;20083;-84
2023/09/29 11:20:58;;;;;;;8.95;4.40;;;;;;;20.35;80.00;100129.97;6179193;23;20024;-86
2023/09/29 11:23:24;;;;;;;4.55;3.45;;;;;;;20.38;79.43;100133.16;6204252;23;20021;-85
2023/09/29 11:25:57;;;;;;;7.68;3.83;;;;;;;20.47;78.81;100128.44;6203467;23;20631;-86
2023/09/29 11:28:28;;;;;;;4.28;3.65;;;;;;;20.53;77.95;100137.63;6153254;23;20017;-86
2023/09/29 11:30:54;;;;;;;4.07;3.47;;;;;;;20.54;76.92;100117.72;6178274;23;20020;-85